Time;durP1;ratioP1;P1;durP2;ratioP2;P2;SDS_P1;SDS_P2;PMS_P1;PMS_P2;Temp;Humidity;BMP_temperature;BMP_pressure;BME280_temperature;BME280_humidity;BME280_pressure;Samples;Min_cycle;Max_cycle;Signal;HPM_P1;HPM_P2
2021/06/29 00:01:09;;;;;;;7.55;4.70;;;;;;;18.57;66.40;99979.55;1714548;82;20992;-78
2021/06/29 00:03:35;;;;;;;6.20;4.60;;;;;;;18.54;66.54;99975.09;1711526;82;21059;-78
2021/06/29 00:06:01;;;;;;;7.65;4.42;;;;;;;18.49;66.75;99975.63;1710643;82;20969;-78
2021/06/29 00:08:28;;;;;;;5.37;4.40;;;;;;;18.45;67.06;99978.86;1710782;81;21039;-78
2021/06/29 00:10:54;;;;;;;5.20;3.95;;;;;;;18.41;67.31;99976.20;1702077;81;21781;-78
2021/06/29 00:13:21;;;;;;;8.18;4.22;;;;;;;18.31;67.48;99970.61;1716044;82;20949;-78
2021/06/29 00:15:49;;;;;;;5.12;4.00;;;;;;;18.27;67.58;99969.33;1749521;79;20985;-78
2021/06/29 00:18:16;;;;;;;6.40;4.53;;;;;;;18.23;67.73;99972.02;1749250;80;21048;-78
2021/06/29 00:20:42;;;;;;;5.30;4.42;;;;;;;18.20;67.79;99975.56;1719616;82;20997;-79
2021/06/29 00:23:09;;;;;;;5.30;4.47;;;;;;;18.14;67.91;99974.44;1749588;80;21633;-79
2021/06/29 00:25:35;;;;;;;4.90;4.40;;;;;;;18.11;68.03;99971.30;1735352;82;21503;-79
2021/06/29 00:28:02;;;;;;;5.17;4.25;;;;;;;18.07;68.12;99970.02;1751388;80;21079;-78
2021/06/29 00:30:29;;;;;;;5.10;4.40;;;;;;;18.01;68.19;99963.53;1743136;80;21087;-78
2021/06/29 00:32:55;;;;;;;6.70;4.20;;;;;;;17.96;68.31;99961.92;1717817;82;21495;-79
2021/06/29 00:35:21;;;;;;;5.58;4.50;;;;;;;17.92;68.48;99960.09;1717342;82;21791;-74
2021/06/29 00:37:47;;;;;;;4.53;4.10;;;;;;;17.89;68.63;99965.81;1750660;80;21000;-79
2021/06/29 00:40:15;;;;;;;8.28;4.85;;;;;;;17.88;68.65;99964.15;1720111;82;21115;-79
2021/06/29 00:42:42;;;;;;;6.17;4.15;;;;;;;17.87;68.65;99954.48;1749291;80;21510;-79
2021/06/29 00:45:09;;;;;;;6.22;4.65;;;;;;;17.86;68.69;99954.66;1715891;82;20984;-79
2021/06/29 00:47:36;;;;;;;5.45;4.35;;;;;;;17.84;68.78;99946.80;1716760;82;21821;-79
2021/06/29 00:50:05;;;;;;;5.05;4.25;;;;;;;17.83;68.81;99950.98;1751853;80;20956;-79
2021/06/29 00:52:31;;;;;;;7.15;4.92;;;;;;;17.80;68.92;99947.34;1725663;82;20961;-79
2021/06/29 00:54:58;;;;;;;5.20;3.95;;;;;;;17.77;69.08;99939.70;1750417;80;21004;-79
2021/06/29 00:57:24;;;;;;;5.45;4.15;;;;;;;17.74;69.18;99939.53;1750411;80;20949;-79
2021/06/29 00:59:50;;;;;;;5.50;4.47;;;;;;;17.72;69.18;99941.55;1750419;80;21811;-79
2021/06/29 01:02:17;;;;;;;6.20;4.45;;;;;;;17.71;69.20;99939.39;1718866;82;21186;-77
2021/06/29 01:04:43;;;;;;;7.25;4.00;;;;;;;17.68;69.23;99937.05;1742257;80;21225;-77
2021/06/29 01:07:10;;;;;;;6.00;3.70;;;;;;;17.67;69.18;99942.08;1749775;80;20942;-77
2021/06/29 01:09:38;;;;;;;5.47;3.92;;;;;;;17.69;69.14;99944.09;1749586;80;20980;-77
2021/06/29 01:12:07;;;;;;;5.40;3.55;;;;;;;17.72;69.05;99945.56;1732851;82;21858;-78
2021/06/29 01:14:34;;;;;;;8.68;3.77;;;;;;;17.76;68.96;99944.69;1718127;82;21104;-78
2021/06/29 01:17:03;;;;;;;4.50;3.50;;;;;;;17.80;68.88;99945.50;1717281;82;21068;-78
2021/06/29 01:19:39;;;;;;;3.77;3.30;;;;;;;17.86;68.77;99946.14;1749848;80;21055;-78
2021/06/29 01:21:59;;;;;;;3.95;3.35;;;;;;;17.91;68.68;99945.59;1726277;82;20926;-78
2021/06/29 01:24:30;;;;;;;5.75;3.50;;;;;;;17.94;68.57;99955.39;1748489;80;21809;-78
2021/06/29 01:30:59;;;;;;;9.68;4.53;;;;;;;17.97;68.44;99946.22;1717668;81;21047;-78
2021/06/29 01:32:19;;;;;;;;;;;;;;;17.97;68.39;99947.55;1724554;81;21079;-78
2021/06/29 01:34:46;;;;;;;6.53;3.58;;;;;;;17.96;68.35;99944.55;1750293;80;20138;-78
2021/06/29 01:37:12;;;;;;;5.12;3.87;;;;;;;17.93;68.39;99942.22;1716264;82;21809;-78
2021/06/29 01:39:57;;;;;;;7.10;3.80;;;;;;;17.89;68.49;99939.59;1749151;80;21099;-78
2021/06/29 01:42:22;;;;;;;9.75;4.20;;;;;;;17.85;68.57;99944.95;1716590;81;26434;-78
2021/06/29 01:44:48;;;;;;;7.17;4.12;;;;;;;17.80;68.65;99942.84;1724955;81;21274;-78
2021/06/29 01:47:24;;;;;;;5.17;4.08;;;;;;;17.76;68.69;99944.22;1750374;81;20995;-78
2021/06/29 01:49:43;;;;;;;4.12;3.72;;;;;;;17.73;68.81;99945.38;1729586;81;21844;-79
2021/06/29 01:52:09;;;;;;;4.90;3.83;;;;;;;17.71;68.92;99946.07;1715768;82;20949;-78
2021/06/29 01:54:36;;;;;;;5.83;3.98;;;;;;;17.69;69.02;99945.89;1717769;82;20989;-79
2021/06/29 01:57:03;;;;;;;5.42;3.92;;;;;;;17.67;69.05;99950.59;1716472;82;20957;-78
2021/06/29 01:59:30;;;;;;;4.83;4.08;;;;;;;17.64;69.12;99950.42;1749125;80;21158;-79
2021/06/29 02:01:56;;;;;;;7.10;4.20;;;;;;;17.60;69.30;99953.64;1717488;82;21792;-78
2021/06/29 02:04:24;;;;;;;6.90;4.12;;;;;;;17.58;69.41;99951.15;1750466;80;20949;-78
2021/06/29 02:06:51;;;;;;;7.12;3.92;;;;;;;17.56;69.53;99953.14;1714557;81;21191;-78
2021/06/29 02:09:17;;;;;;;6.10;4.00;;;;;;;17.56;69.54;99957.14;1752360;80;21091;-78
2021/06/29 02:11:43;;;;;;;4.50;3.92;;;;;;;17.58;69.52;99959.67;1750468;80;21083;-78
2021/06/29 02:14:10;;;;;;;6.20;4.17;;;;;;;17.57;69.56;99962.02;1718430;82;21816;-78
2021/06/29 02:16:36;;;;;;;6.05;4.17;;;;;;;17.59;69.60;99959.98;1715062;82;21071;-78
2021/06/29 02:19:02;;;;;;;6.35;3.80;;;;;;;17.59;69.62;99965.33;1717892;82;21009;-78
2021/06/29 02:21:29;;;;;;;4.70;4.10;;;;;;;17.57;69.59;99965.52;1716930;82;20969;-78
2021/06/29 02:23:55;;;;;;;9.03;4.20;;;;;;;17.59;69.63;99962.66;1715723;82;20961;-78
2021/06/29 02:26:22;;;;;;;4.83;4.25;;;;;;;17.58;69.65;99957.83;1749641;80;21800;-78
2021/06/29 02:28:48;;;;;;;9.65;4.20;;;;;;;17.59;69.65;99959.98;1749952;80;21396;-78
2021/06/29 02:31:14;;;;;;;8.53;4.10;;;;;;;17.60;69.77;99962.48;1717264;82;21016;-78
2021/06/29 02:33:41;;;;;;;8.75;4.10;;;;;;;17.62;69.74;99968.97;1750756;80;21508;-78
2021/06/29 02:36:07;;;;;;;9.10;4.42;;;;;;;17.64;69.78;99961.10;1750804;80;21396;-79
2021/06/29 02:38:34;;;;;;;7.37;4.25;;;;;;;17.67;69.79;99959.94;1716829;82;21765;-79
2021/06/29 02:41:00;;;;;;;6.08;3.87;;;;;;;17.71;69.81;99962.09;1749283;80;21146;-78
2021/06/29 02:43:26;;;;;;;7.03;4.05;;;;;;;17.73;69.83;99957.40;1754180;80;21024;-79
2021/06/29 02:45:53;;;;;;;5.65;3.90;;;;;;;17.78;69.82;99964.89;1755263;80;20937;-78
2021/06/29 02:48:19;;;;;;;7.87;4.10;;;;;;;17.83;69.80;99963.01;1723056;82;20995;-78
2021/06/29 02:50:45;;;;;;;6.70;4.12;;;;;;;17.88;69.84;99965.99;1743691;79;21532;-79
2021/06/29 02:53:12;;;;;;;5.40;3.90;;;;;;;17.93;69.81;99965.77;1717479;82;20846;-78
2021/06/29 02:55:38;;;;;;;5.47;4.10;;;;;;;17.99;69.82;99965.06;1712649;82;20993;-78
2021/06/29 02:58:04;;;;;;;7.22;4.50;;;;;;;18.04;69.65;99957.82;1710978;82;21318;-79
2021/06/29 03:00:31;;;;;;;8.33;4.00;;;;;;;18.10;69.57;99961.13;1712436;82;20953;-79
2021/06/29 03:02:57;;;;;;;4.65;3.90;;;;;;;18.15;69.61;99961.94;1714987;82;21468;-78
2021/06/29 03:05:24;;;;;;;8.05;3.87;;;;;;;18.22;69.59;99966.86;1711541;82;21436;-78
2021/06/29 03:07:50;;;;;;;4.55;3.87;;;;;;;18.28;69.67;99968.81;1710012;82;20969;-79
2021/06/29 03:10:17;;;;;;;6.15;3.62;;;;;;;18.36;69.58;99967.91;1713891;81;21040;-78
2021/06/29 03:12:44;;;;;;;7.47;3.90;;;;;;;18.44;69.43;99967.33;1713592;81;20957;-78
2021/06/29 03:15:10;;;;;;;6.33;3.85;;;;;;;18.53;69.22;99973.44;1715089;82;21831;-79
2021/06/29 03:17:37;;;;;;;4.80;4.08;;;;;;;18.60;68.99;99985.04;1749041;79;21012;-79
2021/06/29 03:20:06;;;;;;;4.42;3.50;;;;;;;18.67;68.88;99980.66;1717911;82;21448;-79
2021/06/29 03:22:33;;;;;;;6.58;3.92;;;;;;;18.74;68.65;99981.59;1719726;82;21159;-79
2021/06/29 03:24:59;;;;;;;7.80;3.90;;;;;;;18.80;68.51;99980.00;1713353;82;21228;-79
2021/06/29 03:27:25;;;;;;;8.20;4.10;;;;;;;18.86;68.27;99980.11;1717316;82;21873;-79
2021/06/29 03:29:52;;;;;;;6.00;4.10;;;;;;;18.93;67.96;99980.72;1728718;81;21100;-79
2021/06/29 03:32:19;;;;;;;5.33;4.00;;;;;;;18.98;67.89;99987.16;1706491;81;21589;-78
2021/06/29 03:34:45;;;;;;;4.97;3.95;;;;;;;19.03;67.59;99986.11;1767975;78;21008;-78
2021/06/29 03:37:11;;;;;;;7.67;3.60;;;;;;;19.08;67.40;99985.53;1747219;82;21040;-78
2021/06/29 03:39:38;;;;;;;5.70;3.75;;;;;;;19.13;67.17;99990.66;1739715;80;21781;-78
2021/06/29 03:42:05;;;;;;;5.28;3.87;;;;;;;19.19;66.94;99988.23;1718923;82;20980;-78
2021/06/29 03:44:32;;;;;;;5.35;3.80;;;;;;;19.23;66.77;99996.23;1700294;82;21033;-79
2021/06/29 03:46:58;;;;;;;6.30;4.60;;;;;;;19.25;66.70;99993.69;1705494;80;21001;-78
2021/06/29 03:49:25;;;;;;;4.37;3.50;;;;;;;19.27;66.71;99990.31;1739921;80;21104;-78
2021/06/29 03:51:53;;;;;;;5.62;4.20;;;;;;;19.29;66.53;99993.63;1734134;80;21804;-77
2021/06/29 03:54:20;;;;;;;5.08;3.75;;;;;;;19.34;66.57;99985.87;1741276;80;21013;-78
2021/06/29 03:56:46;;;;;;;5.78;4.60;;;;;;;19.39;66.51;99984.78;1715766;82;21010;-79
2021/06/29 03:59:13;;;;;;;8.18;4.22;;;;;;;19.44;66.39;99986.40;1722543;80;20996;-79
2021/06/29 04:01:39;;;;;;;5.87;4.10;;;;;;;19.53;66.43;99987.63;1700473;82;21182;-81
2021/06/29 04:04:06;;;;;;;5.40;3.75;;;;;;;19.59;66.21;99985.55;1680518;83;22531;-81
2021/06/29 04:06:35;;;;;;;3.98;3.47;;;;;;;19.64;66.10;99985.82;1713994;82;21574;-79
2021/06/29 04:09:05;;;;;;;4.83;3.58;;;;;;;19.70;65.75;99979.71;1720526;82;21009;-79
2021/06/29 04:11:32;;;;;;;5.87;3.45;;;;;;;19.75;65.77;99984.48;1725757;81;21485;-80
2021/06/29 04:13:59;;;;;;;5.40;3.65;;;;;;;19.83;65.95;99981.69;1698789;82;21075;-79
2021/06/29 04:16:26;;;;;;;6.22;3.60;;;;;;;19.92;65.92;99979.20;1706401;82;21795;-77
2021/06/29 04:18:52;;;;;;;5.00;3.70;;;;;;;20.04;65.80;99984.87;1731926;82;21014;-79
2021/06/29 04:21:18;;;;;;;7.65;3.67;;;;;;;20.16;65.59;99987.34;1717079;82;21059;-80
2021/06/29 04:23:45;;;;;;;7.05;3.50;;;;;;;20.30;65.31;99986.44;1697216;82;21020;-80
2021/06/29 04:26:17;;;;;;;5.30;3.70;;;;;;;20.44;64.95;99993.58;1709132;82;20977;-79
2021/06/29 04:28:43;;;;;;;6.53;3.70;;;;;;;20.58;64.51;99989.16;1716831;81;22465;-78
2021/06/29 04:31:10;;;;;;;3.70;3.20;;;;;;;20.71;64.37;99991.92;1746319;80;21424;-78
2021/06/29 04:33:36;;;;;;;6.53;3.50;;;;;;;20.82;64.08;99998.08;1749023;80;21443;-80
2021/06/29 04:36:04;;;;;;;4.87;3.47;;;;;;;20.89;63.51;99994.09;1727217;80;21381;-80
2021/06/29 04:38:30;;;;;;;9.48;3.60;;;;;;;20.94;63.41;99994.34;1719522;81;21013;-79
2021/06/29 04:40:57;;;;;;;3.67;3.27;;;;;;;20.98;63.62;99993.42;1754333;80;21804;-79
2021/06/29 04:43:23;;;;;;;6.97;3.72;;;;;;;21.06;63.48;99998.12;1745011;81;21423;-80
2021/06/29 04:45:49;;;;;;;4.62;3.60;;;;;;;21.15;63.17;99994.23;1765166;80;21073;-80
2021/06/29 04:48:16;;;;;;;9.10;3.90;;;;;;;21.27;63.53;99995.04;1729518;80;21189;-73
2021/06/29 04:50:43;;;;;;;3.90;3.55;;;;;;;21.39;63.38;99993.42;1723486;80;20974;-78
2021/06/29 04:53:09;;;;;;;7.80;3.70;;;;;;;21.53;62.80;99985.73;1716331;81;21814;-80
2021/06/29 04:55:36;;;;;;;6.65;3.67;;;;;;;21.64;62.38;99987.00;1684159;83;21098;-78
2021/06/29 04:58:02;;;;;;;7.15;3.40;;;;;;;21.71;61.56;99990.02;1715345;82;20995;-78
2021/06/29 05:00:29;;;;;;;8.55;3.37;;;;;;;21.73;61.18;99991.68;1749326;80;21212;-78
2021/06/29 05:02:55;;;;;;;5.65;3.50;;;;;;;21.74;61.07;99992.81;1751710;80;21067;-78
2021/06/29 05:05:21;;;;;;;6.70;3.75;;;;;;;21.77;61.19;99990.23;1724929;82;21804;-78
2021/06/29 05:07:48;;;;;;;4.60;3.75;;;;;;;21.80;61.08;99993.33;1701308;82;21136;-78
2021/06/29 05:10:15;;;;;;;5.42;3.77;;;;;;;21.85;61.26;99992.73;1717768;82;21099;-78
2021/06/29 05:12:41;;;;;;;4.67;3.58;;;;;;;21.89;60.78;99993.97;1713315;82;21404;-78
2021/06/29 05:15:09;;;;;;;5.08;3.67;;;;;;;21.93;60.96;99986.64;1717370;82;21499;-79
2021/06/29 05:17:35;;;;;;;5.33;3.67;;;;;;;22.00;60.81;99993.35;1709396;81;21828;-79
2021/06/29 05:20:05;;;;;;;6.45;3.67;;;;;;;22.02;60.15;99995.86;1748553;80;20953;-79
2021/06/29 05:22:32;;;;;;;8.68;4.10;;;;;;;21.99;60.18;99993.05;1716276;82;21080;-79
2021/06/29 05:25:00;;;;;;;3.90;3.50;;;;;;;21.99;59.98;99997.91;1728865;80;21111;-78
2021/06/29 05:27:26;;;;;;;5.30;3.70;;;;;;;21.99;59.64;99998.42;1715723;80;21028;-78
2021/06/29 05:29:53;;;;;;;4.58;3.72;;;;;;;21.98;60.09;100008.88;1717564;82;21816;-78
2021/06/29 05:32:19;;;;;;;4.20;3.58;;;;;;;21.98;59.68;100004.31;1716165;82;21005;-78
2021/06/29 05:34:46;;;;;;;4.58;3.72;;;;;;;21.93;59.76;100004.64;1717113;82;21032;-78
2021/06/29 05:37:12;;;;;;;5.03;3.62;;;;;;;21.89;59.77;100012.78;1751081;80;20957;-78
2021/06/29 05:39:38;;;;;;;4.75;3.80;;;;;;;21.84;59.97;100009.90;1753630;80;21001;-79
2021/06/29 05:42:06;;;;;;;5.78;3.45;;;;;;;21.79;60.19;100011.00;1695196;82;21767;-78
2021/06/29 05:44:33;;;;;;;5.20;3.62;;;;;;;21.75;60.60;100004.39;1684468;83;20961;-78
2021/06/29 05:47:03;;;;;;;4.28;3.85;;;;;;;21.73;60.67;100010.50;1761359;80;21491;-78
2021/06/29 05:49:27;;;;;;;4.87;3.70;;;;;;;21.70;60.93;100013.87;1775568;80;20981;-78
2021/06/29 05:51:54;;;;;;;6.62;3.90;;;;;;;21.67;61.21;100006.23;1761981;80;21195;-78
2021/06/29 05:54:20;;;;;;;7.08;4.05;;;;;;;21.68;61.65;100009.23;1756159;80;21758;-78
2021/06/29 05:56:46;;;;;;;6.53;4.37;;;;;;;21.72;61.85;100005.64;1780060;80;21509;-78
2021/06/29 05:59:13;;;;;;;4.40;3.58;;;;;;;21.78;61.86;100004.80;1732622;80;21013;-78
2021/06/29 06:01:39;;;;;;;7.58;3.87;;;;;;;21.87;61.66;100002.76;1719019;81;21130;-78
2021/06/29 06:04:05;;;;;;;5.50;4.08;;;;;;;21.95;61.72;100005.26;1687197;83;21017;-78
2021/06/29 06:06:32;;;;;;;4.37;3.80;;;;;;;22.07;61.53;100001.47;1685299;84;21795;-78
2021/06/29 06:08:58;;;;;;;8.23;4.03;;;;;;;22.19;61.33;100011.40;1718941;82;20970;-79
2021/06/29 06:11:24;;;;;;;9.60;4.05;;;;;;;22.24;60.14;100007.59;1719452;81;21013;-79
2021/06/29 06:13:51;;;;;;;4.92;4.10;;;;;;;22.25;60.29;100006.55;1719424;81;20977;-79
2021/06/29 06:16:17;;;;;;;5.58;4.05;;;;;;;22.30;60.65;100002.43;1691238;82;21013;-79
2021/06/29 06:18:43;;;;;;;6.30;4.00;;;;;;;22.37;60.59;100005.92;1753043;80;21796;-79
2021/06/29 06:21:10;;;;;;;4.92;4.08;;;;;;;22.49;60.69;99998.39;1718054;82;20949;-78
2021/06/29 06:23:37;;;;;;;7.72;3.90;;;;;;;22.63;60.55;99999.19;1750218;80;21506;-79
2021/06/29 06:26:04;;;;;;;7.03;3.95;;;;;;;22.80;60.52;99997.71;1716275;82;21471;-79
2021/06/29 06:28:30;;;;;;;5.85;3.70;;;;;;;22.94;59.79;99994.48;1717569;82;20969;-79
2021/06/29 06:30:57;;;;;;;4.20;3.75;;;;;;;23.06;59.15;99997.34;1719388;82;21887;-78
2021/06/29 06:33:23;;;;;;;5.05;3.58;;;;;;;23.12;58.32;100004.06;1715646;82;20953;-78
2021/06/29 06:35:50;;;;;;;11.80;3.85;;;;;;;23.11;57.53;99999.72;1717574;82;20969;-78
2021/06/29 06:38:17;;;;;;;9.25;4.37;;;;;;;23.06;57.80;99996.82;1716908;82;21009;-79
2021/06/29 06:40:43;;;;;;;9.10;4.55;;;;;;;23.05;58.27;100000.56;1717743;82;21009;-78
2021/06/29 06:43:10;;;;;;;6.15;4.10;;;;;;;23.09;58.61;100000.45;1716301;82;21791;-78
2021/06/29 06:45:37;;;;;;;5.42;4.03;;;;;;;23.16;58.74;100000.41;1717765;82;21083;-78
2021/06/29 06:48:05;;;;;;;8.80;3.80;;;;;;;23.27;58.61;100005.17;1715667;82;21495;-78
2021/06/29 06:50:31;;;;;;;5.22;4.40;;;;;;;23.42;58.55;100002.19;1741692;80;21639;-78
2021/06/29 06:52:58;;;;;;;7.75;4.10;;;;;;;23.57;58.01;100003.27;1717504;82;21092;-79
2021/06/29 06:55:25;;;;;;;4.55;3.65;;;;;;;23.63;57.71;100012.68;1716694;82;21800;-79
2021/06/29 06:57:54;;;;;;;12.45;4.40;;;;;;;23.70;57.14;100005.91;1749751;80;21004;-78
2021/06/29 07:00:21;;;;;;;7.78;4.70;;;;;;;23.77;57.57;100002.66;1750218;80;20957;-79
2021/06/29 07:02:48;;;;;;;7.97;4.50;;;;;;;23.82;56.97;100006.87;1716956;82;21032;-78
2021/06/29 07:05:15;;;;;;;6.45;4.30;;;;;;;23.77;56.90;100008.58;1717939;82;20953;-78
2021/06/29 07:07:41;;;;;;;5.10;3.83;;;;;;;23.78;57.00;100015.10;1749157;80;22462;-78
2021/06/29 07:10:09;;;;;;;6.22;4.22;;;;;;;23.80;56.58;100010.31;1751260;80;20981;-79
2021/06/29 07:12:35;;;;;;;5.92;3.90;;;;;;;23.80;56.41;100012.19;1695842;83;21071;-79
2021/06/29 07:15:04;;;;;;;5.40;3.60;;;;;;;23.83;56.27;100012.56;1687211;83;21039;-78
2021/06/29 07:17:30;;;;;;;9.05;3.60;;;;;;;23.87;56.32;100017.84;1716048;82;21457;-78
2021/06/29 07:19:57;;;;;;;3.85;3.45;;;;;;;23.96;55.52;100013.02;1664844;83;21468;-78
2021/06/29 07:22:23;;;;;;;5.87;3.20;;;;;;;23.97;54.51;100010.63;1716128;82;20965;-79
2021/06/29 07:24:49;;;;;;;5.47;3.55;;;;;;;23.97;54.20;100016.84;1720209;82;21040;-78
2021/06/29 07:27:16;;;;;;;4.97;3.30;;;;;;;24.01;53.71;100015.88;1721136;81;21028;-78
2021/06/29 07:29:43;;;;;;;6.15;3.33;;;;;;;24.08;54.21;100015.84;1688893;83;20964;-78
2021/06/29 07:32:10;;;;;;;6.55;3.62;;;;;;;24.15;54.54;100020.15;1688771;83;22232;-78
2021/06/29 07:34:36;;;;;;;4.12;3.30;;;;;;;24.24;53.09;100015.31;1713840;81;21008;-78
2021/06/29 07:37:05;;;;;;;5.72;4.08;;;;;;;24.29;54.05;100020.86;1687530;84;20977;-78
2021/06/29 07:39:31;;;;;;;6.83;3.75;;;;;;;24.42;54.00;100016.75;1634100;85;21234;-77
2021/06/29 07:41:58;;;;;;;4.67;3.45;;;;;;;24.49;53.87;100018.85;1714134;82;21063;-78
2021/06/29 07:44:24;;;;;;;7.30;3.67;;;;;;;24.51;53.32;100018.62;1716853;82;22212;-78
2021/06/29 07:46:51;;;;;;;8.03;3.98;;;;;;;24.46;53.98;100020.66;1714233;81;21047;-78
2021/06/29 07:49:18;;;;;;;5.22;4.05;;;;;;;24.38;53.77;100017.40;1716290;81;21028;-78
2021/06/29 07:51:45;;;;;;;8.48;3.95;;;;;;;24.39;54.29;100020.40;1683741;84;21034;-78
2021/06/29 07:54:11;;;;;;;7.87;3.65;;;;;;;24.43;54.94;100023.80;1738394;81;21005;-78
2021/06/29 07:56:37;;;;;;;5.40;3.67;;;;;;;24.54;55.12;100020.37;1745730;80;21805;-78
2021/06/29 07:59:04;;;;;;;5.22;3.62;;;;;;;24.64;54.61;100025.27;1707853;81;20945;-78
2021/06/29 08:01:31;;;;;;;7.45;4.00;;;;;;;24.73;53.57;100025.30;1717831;81;21848;-78
2021/06/29 08:03:58;;;;;;;6.80;3.52;;;;;;;24.74;53.54;100028.30;1716739;82;21505;-78
2021/06/29 08:06:24;;;;;;;3.83;3.20;;;;;;;24.72;53.59;100026.87;1716342;82;20942;-77
2021/06/29 08:08:52;;;;;;;6.22;3.47;;;;;;;24.75;53.80;100023.72;1715768;82;22649;-78
2021/06/29 08:11:18;;;;;;;5.53;3.33;;;;;;;24.83;53.84;100022.08;1715071;82;21048;-78
2021/06/29 08:13:45;;;;;;;5.25;3.40;;;;;;;24.99;54.44;100019.30;1717573;82;21131;-78
2021/06/29 08:16:11;;;;;;;4.12;3.25;;;;;;;25.19;52.62;100021.31;1717909;82;21120;-78
2021/06/29 08:18:39;;;;;;;3.95;3.35;;;;;;;25.31;52.40;100021.38;1715881;82;21087;-78
2021/06/29 08:21:06;;;;;;;3.98;3.05;;;;;;;25.46;52.51;100019.09;1752190;80;21744;-78
2021/06/29 08:23:32;;;;;;;3.30;2.98;;;;;;;25.66;51.96;100018.29;1716611;82;20976;-78
2021/06/29 08:25:59;;;;;;;3.52;2.90;;;;;;;25.89;50.03;100011.37;1731088;82;20981;-78
2021/06/29 08:28:26;;;;;;;3.70;2.52;;;;;;;26.01;48.78;100013.57;1717196;82;21048;-78
2021/06/29 08:30:53;;;;;;;4.70;2.70;;;;;;;26.03;47.75;100011.45;1753631;80;21193;-78
2021/06/29 08:33:23;;;;;;;6.33;2.55;;;;;;;25.94;47.64;100021.78;1751014;80;21781;-78
2021/06/29 08:35:50;;;;;;;6.67;2.70;;;;;;;25.83;47.45;100027.16;1718590;82;21013;-78
2021/06/29 08:38:17;;;;;;;5.10;2.47;;;;;;;25.69;47.84;100026.50;1714700;82;20947;-78
2021/06/29 08:40:43;;;;;;;7.37;2.90;;;;;;;25.66;48.27;100026.41;1716056;82;21032;-79
2021/06/29 08:43:11;;;;;;;4.50;2.70;;;;;;;25.63;47.91;100026.05;1749949;80;21400;-78
2021/06/29 08:45:38;;;;;;;2.95;2.20;;;;;;;25.60;48.17;100021.11;1751948;80;21791;-78
2021/06/29 08:48:06;;;;;;;5.10;2.10;;;;;;;25.65;47.83;100022.58;1711055;82;21039;-78
2021/06/29 08:50:32;;;;;;;2.47;1.92;;;;;;;25.80;46.92;100019.51;1727291;81;20965;-79
2021/06/29 08:53:02;;;;;;;2.50;2.10;;;;;;;25.90;43.86;100020.60;1740028;81;20953;-79
2021/06/29 08:55:39;;;;;;;4.17;1.80;;;;;;;25.96;43.67;100025.59;1718585;82;21531;-78
2021/06/29 08:58:05;;;;;;;2.60;2.08;;;;;;;25.97;43.64;100020.52;1730129;82;21833;-78
2021/06/29 09:00:32;;;;;;;3.45;1.90;;;;;;;25.86;43.83;100025.33;1742311;81;21009;-78
2021/06/29 09:02:58;;;;;;;3.17;2.02;;;;;;;25.75;44.70;100026.13;1740331;81;21024;-78
2021/06/29 09:05:29;;;;;;;3.52;1.80;;;;;;;25.71;43.87;100020.89;1685691;83;20989;-78
2021/06/29 09:08:11;;;;;;;3.50;1.98;;;;;;;25.77;44.61;100001.87;1714666;81;21036;-78
2021/06/29 09:10:41;;;;;;;4.42;2.08;;;;;;;26.04;46.20;100005.51;1717577;82;21832;-78
2021/06/29 09:13:08;;;;;;;6.87;2.10;;;;;;;26.37;46.52;99995.52;1717568;82;20972;-78
2021/06/29 09:15:40;;;;;;;2.37;2.00;;;;;;;26.61;44.56;99999.07;1718025;82;21020;-78
2021/06/29 09:18:13;;;;;;;3.17;2.17;;;;;;;26.72;44.31;99989.58;1748138;80;21271;-78
2021/06/29 09:20:56;;;;;;;2.65;1.98;;;;;;;26.74;43.06;99980.70;1751876;80;21036;-78
2021/06/29 09:23:41;;;;;;;5.75;2.08;;;;;;;26.76;42.35;99984.53;1719789;81;22436;-79
2021/06/29 09:26:13;;;;;;;5.12;2.22;;;;;;;26.72;41.97;99978.74;1717510;82;21182;-77
2021/06/29 09:28:47;;;;;;;3.20;1.80;;;;;;;26.70;42.70;99975.98;1750648;80;21083;-77
2021/06/29 09:31:19;;;;;;;2.87;1.72;;;;;;;26.71;42.12;99968.97;1732139;82;21304;-77
2021/06/29 09:33:52;;;;;;;4.83;2.10;;;;;;;26.86;43.17;99975.27;1716414;82;21056;-78
2021/06/29 09:36:23;;;;;;;;;;;;;;;27.00;42.79;99972.58;1745414;80;21540;-78
2021/06/29 09:38:51;;;;;;;2.42;2.22;;;;;;;26.98;43.04;99965.75;1738392;80;20166;-78
2021/06/29 09:41:30;;;;;;;3.65;2.12;;;;;;;26.95;44.37;99963.53;1725507;80;21000;-78
2021/06/29 09:44:09;;;;;;;2.42;1.80;;;;;;;26.98;43.82;99969.28;1717628;82;21036;-79
2021/06/29 09:46:37;;;;;;;3.77;1.95;;;;;;;27.12;43.57;99960.91;1750911;80;21418;-78
2021/06/29 09:49:11;;;;;;;3.37;2.30;;;;;;;27.38;43.04;99957.64;1750974;80;21807;-78
2021/06/29 09:51:39;;;;;;;4.30;2.30;;;;;;;27.48;42.72;99966.50;1716612;82;21508;-78
2021/06/29 09:54:08;;;;;;;2.80;2.02;;;;;;;27.54;43.12;99957.41;1717415;82;21060;-78
2021/06/29 09:56:46;;;;;;;2.33;2.10;;;;;;;27.69;42.22;99946.84;1715126;82;21020;-79
2021/06/29 09:59:13;;;;;;;2.75;2.00;;;;;;;27.76;41.64;99950.77;1750451;80;21043;-78
2021/06/29 10:01:42;;;;;;;4.50;1.82;;;;;;;27.83;40.56;99945.48;1717451;82;21380;-78
2021/06/29 10:04:08;;;;;;;2.37;1.95;;;;;;;27.88;39.30;99942.84;1718616;82;21523;-78
2021/06/29 10:06:37;;;;;;;2.62;2.05;;;;;;;27.97;40.23;99933.75;1750023;80;21447;-78
2021/06/29 10:09:08;;;;;;;5.33;2.17;;;;;;;28.11;39.77;99929.66;1717111;82;21068;-78
2021/06/29 10:11:40;;;;;;;2.95;2.22;;;;;;;28.09;41.12;99935.05;1719344;82;21043;-78
2021/06/29 10:14:10;;;;;;;3.80;2.12;;;;;;;28.11;42.23;99927.48;1717021;82;21870;-77
2021/06/29 10:16:51;;;;;;;3.70;2.47;;;;;;;28.11;42.81;99927.48;1751375;80;21040;-78
2021/06/29 10:19:37;;;;;;;4.10;2.10;;;;;;;28.15;43.07;99924.54;1717090;81;21067;-78
2021/06/29 10:21:56;;;;;;;2.40;2.20;;;;;;;28.11;42.70;99919.33;1715567;82;21012;-77
2021/06/29 10:24:32;;;;;;;2.52;2.17;;;;;;;28.05;43.07;99918.95;1718650;82;20998;-77
2021/06/29 10:27:02;;;;;;;3.05;2.50;;;;;;;27.97;42.97;99920.72;1715743;82;22605;-78
2021/06/29 10:29:29;;;;;;;2.85;2.30;;;;;;;27.91;43.13;99921.19;1717943;82;21009;-78
2021/06/29 10:32:10;;;;;;;3.25;2.50;;;;;;;27.84;43.14;99913.20;1718722;82;21044;-78
2021/06/29 10:34:34;;;;;;;3.12;2.30;;;;;;;27.75;42.75;99913.84;1734663;82;21006;-78
2021/06/29 10:37:00;;;;;;;3.25;2.02;;;;;;;27.74;43.38;99918.45;1716026;82;21194;-78
2021/06/29 10:39:30;;;;;;;2.90;2.22;;;;;;;27.86;44.07;99909.70;1747196;80;21823;-78
2021/06/29 10:42:10;;;;;;;3.55;2.42;;;;;;;27.91;42.85;99916.58;1696778;82;21528;-77
2021/06/29 10:44:46;;;;;;;4.80;2.50;;;;;;;27.66;43.02;99925.10;1727824;82;21099;-78
2021/06/29 10:47:29;;;;;;;2.67;2.30;;;;;;;27.43;44.44;99929.80;1692520;82;21040;-78
2021/06/29 10:49:58;;;;;;;4.85;2.10;;;;;;;27.22;44.59;99930.78;1721248;81;20960;-78
2021/06/29 10:52:34;;;;;;;3.50;2.30;;;;;;;27.03;45.32;99927.95;1716799;82;22208;-78
2021/06/29 10:55:23;;;;;;;4.65;2.30;;;;;;;26.93;45.06;99938.56;1717315;82;20974;-78
2021/06/29 10:57:54;;;;;;;3.33;2.35;;;;;;;26.77;45.54;99931.98;1745340;80;20988;-78
2021/06/29 11:00:26;;;;;;;3.50;2.50;;;;;;;26.53;46.03;99949.60;1725280;82;21425;-78
2021/06/29 11:03:05;;;;;;;4.63;2.63;;;;;;;26.38;46.55;99955.22;1715964;82;20949;-78
2021/06/29 11:05:44;;;;;;;4.58;2.33;;;;;;;26.20;45.94;99977.77;1716111;82;21842;-78
2021/06/29 11:08:23;;;;;;;3.10;1.70;;;;;;;25.88;44.19;99978.08;1718039;82;20961;-78
2021/06/29 11:10:49;;;;;;;2.95;1.90;;;;;;;25.39;42.08;99979.16;1728019;81;21738;-78
2021/06/29 11:13:19;;;;;;;5.75;2.10;;;;;;;24.97;43.63;99989.80;1716485;82;21016;-78
2021/06/29 11:15:55;;;;;;;4.53;2.15;;;;;;;24.75;44.90;99991.30;1718457;82;21009;-77
2021/06/29 11:18:41;;;;;;;5.03;1.85;;;;;;;24.59;46.77;99987.82;1726410;82;21777;-78
2021/06/29 11:21:21;;;;;;;5.87;2.10;;;;;;;24.43;47.91;99992.76;1701856;82;21054;-78
2021/06/29 11:23:47;;;;;;;4.37;2.10;;;;;;;24.26;48.73;99992.97;1712110;82;21024;-78
2021/06/29 11:26:17;;;;;;;5.87;2.20;;;;;;;24.14;49.72;100013.63;1713498;82;21029;-78
2021/06/29 11:28:54;;;;;;;5.78;2.55;;;;;;;23.99;50.49;100003.95;1714333;81;21033;-78
2021/06/29 11:31:33;;;;;;;6.35;2.17;;;;;;;23.85;51.20;100005.11;1711862;81;21751;-78
2021/06/29 11:34:05;;;;;;;10.63;2.20;;;;;;;23.76;52.07;99997.49;1720190;81;21009;-79
2021/06/29 11:36:37;;;;;;;3.37;2.25;;;;;;;23.74;52.52;99987.42;1718568;81;25260;-78
2021/06/29 11:39:22;;;;;;;4.40;2.50;;;;;;;23.68;52.51;99986.44;1718491;82;21124;-79